createdAt,value
2019-04-29T00:01:02.293Z,7.55
2019-04-29T00:05:09.766Z,7.55
2019-04-29T00:09:18.829Z,7.50
2019-04-29T00:13:25.622Z,7.54
2019-04-29T00:17:42.026Z,7.45
2019-04-29T00:21:50.324Z,7.44
2019-04-29T00:25:57.044Z,7.39
2019-04-29T00:30:03.868Z,7.42
2019-04-29T00:34:11.251Z,7.39
2019-04-29T00:38:37.663Z,7.35
2019-04-29T00:42:53.445Z,7.28
2019-04-29T00:47:00.146Z,7.25
2019-04-29T00:51:07.885Z,7.18
2019-04-29T00:55:17.193Z,7.16
2019-04-29T00:59:23.932Z,7.08
2019-04-29T01:03:31.179Z,7.11
2019-04-29T01:07:37.849Z,6.94
2019-04-29T01:11:45.072Z,6.99
2019-04-29T01:15:52.798Z,6.93
2019-04-29T01:19:59.495Z,6.97
2019-04-29T01:24:06.622Z,6.90
2019-04-29T01:28:22.122Z,6.93
2019-04-29T01:32:28.824Z,6.88
2019-04-29T01:36:38.313Z,6.89
2019-04-29T01:40:51.421Z,6.82
2019-04-29T01:44:58.233Z,6.85
2019-04-29T01:49:04.956Z,6.80
2019-04-29T01:53:11.608Z,6.78
2019-04-29T01:57:19.042Z,6.78
2019-04-29T02:01:25.709Z,6.78
2019-04-29T02:05:33.803Z,6.77
2019-04-29T02:09:58.274Z,6.75
2019-04-29T02:14:04.980Z,6.69
2019-04-29T02:18:11.742Z,6.65
2019-04-29T02:22:28.914Z,6.64
2019-04-29T02:26:35.658Z,6.54
2019-04-29T02:30:46.752Z,6.46
2019-04-29T02:34:53.521Z,6.46
2019-04-29T02:39:34.217Z,6.46
2019-04-29T02:43:42.573Z,6.41
2019-04-29T02:47:49.466Z,6.41
2019-04-29T02:51:56.241Z,6.36
2019-04-29T02:56:03.279Z,6.36
2019-04-29T03:00:20.803Z,6.29
2019-04-29T03:04:29.910Z,6.38
2019-04-29T03:08:36.606Z,6.25
2019-04-29T03:12:43.325Z,6.20
2019-04-29T03:16:50.157Z,6.23
2019-04-29T03:21:05.473Z,6.10
2019-04-29T03:25:12.362Z,6.12
2019-04-29T03:29:25.422Z,6.00
2019-04-29T03:33:32.289Z,6.02
2019-04-29T03:37:39.022Z,5.98
2019-04-29T03:41:45.715Z,5.88
2019-04-29T03:45:52.647Z,5.80
2019-04-29T03:49:59.491Z,5.69
2019-04-29T03:54:07.871Z,5.71
2019-04-29T03:58:14.601Z,5.64
2019-04-29T04:02:46.028Z,5.40
2019-04-29T04:06:58.321Z,5.46
2019-04-29T04:11:05.126Z,5.47
2019-04-29T04:15:11.932Z,5.53
2019-04-29T04:19:19.727Z,5.54
2019-04-29T04:23:26.618Z,5.50
2019-04-29T04:27:33.293Z,5.47
2019-04-29T04:31:41.131Z,5.43
2019-04-29T04:35:47.800Z,5.42
2019-04-29T04:39:55.023Z,5.35
2019-04-29T04:44:01.775Z,5.37
2019-04-29T04:48:08.524Z,5.47
2019-04-29T04:52:15.325Z,5.45
2019-04-29T04:56:22.300Z,5.42
2019-04-29T05:00:30.828Z,5.49
2019-04-29T05:04:37.584Z,5.57
2019-04-29T05:08:44.262Z,5.47
2019-04-29T05:12:50.967Z,5.65
2019-04-29T05:16:57.766Z,5.78
2019-04-29T05:21:04.562Z,5.65
2019-04-29T05:25:11.466Z,5.81
2019-04-29T05:29:18.401Z,5.73
2019-04-29T05:33:25.185Z,5.88
2019-04-29T05:37:37.750Z,5.89
2019-04-29T05:41:44.466Z,5.79
2019-04-29T05:45:58.354Z,5.76
2019-04-29T05:50:42.765Z,5.96
2019-04-29T05:54:49.652Z,6.07
2019-04-29T05:58:56.901Z,6.28
2019-04-29T06:03:03.787Z,6.56
2019-04-29T06:07:10.540Z,6.62
2019-04-29T06:11:17.223Z,6.73
2019-04-29T06:15:23.958Z,6.91
2019-04-29T06:19:35.154Z,7.00
2019-04-29T06:23:42.613Z,7.10
2019-04-29T06:27:49.406Z,7.35
2019-04-29T06:31:56.112Z,7.48
2019-04-29T06:36:02.904Z,7.53
2019-04-29T06:40:10.297Z,7.78
2019-04-29T06:44:17.082Z,7.88
2019-04-29T06:48:23.811Z,8.00
2019-04-29T06:52:30.632Z,8.08
2019-04-29T06:56:37.341Z,8.23
2019-04-29T07:00:44.110Z,8.34
2019-04-29T07:04:50.837Z,8.49
2019-04-29T07:08:57.659Z,8.77
2019-04-29T07:13:04.492Z,8.76
2019-04-29T07:17:11.272Z,9.11
2019-04-29T07:21:17.969Z,9.19
2019-04-29T07:25:28.342Z,9.35
2019-04-29T07:29:33.527Z,9.66
2019-04-29T07:33:40.429Z,9.76
2019-04-29T07:37:47.132Z,9.78
2019-04-29T07:41:54.734Z,10.02
2019-04-29T07:46:17.812Z,10.22
2019-04-29T07:50:26.624Z,10.60
2019-04-29T07:54:33.167Z,10.75
2019-04-29T07:58:39.896Z,10.94
2019-04-29T08:02:47.251Z,10.84
2019-04-29T08:06:55.367Z,11.21
2019-04-29T08:11:02.073Z,11.72
2019-04-29T08:15:10.555Z,11.75
2019-04-29T08:19:17.423Z,12.17
2019-04-29T08:23:24.232Z,11.90
2019-04-29T08:27:39.817Z,12.28
2019-04-29T08:31:39.457Z,12.53
2019-04-29T08:35:46.899Z,12.66
2019-04-29T08:40:14.788Z,13.19
2019-04-29T08:44:26.879Z,13.57
2019-04-29T08:48:33.667Z,13.91
2019-04-29T08:52:40.435Z,14.42
2019-04-29T08:57:02.381Z,14.41
2019-04-29T09:00:56.165Z,14.55
2019-04-29T09:05:06.753Z,14.82
2019-04-29T09:09:27.955Z,15.19
2019-04-29T09:13:21.088Z,15.19
2019-04-29T09:17:27.759Z,15.01
2019-04-29T09:21:34.588Z,15.70
2019-04-29T09:26:03.395Z,15.07
2019-04-29T09:30:13.418Z,15.43
2019-04-29T09:34:24.703Z,15.69
2019-04-29T09:38:32.541Z,15.61
2019-04-29T09:43:15.233Z,15.31
2019-04-29T09:47:14.491Z,15.07
2019-04-29T09:51:22.464Z,15.06
2019-04-29T09:55:30.094Z,15.34
2019-04-29T09:59:45.408Z,15.38
2019-04-29T10:04:11.614Z,15.24
2019-04-29T10:08:18.537Z,15.42
2019-04-29T10:12:25.290Z,15.28
2019-04-29T10:16:51.584Z,15.29
2019-04-29T10:21:01.818Z,15.40
2019-04-29T10:25:09.550Z,15.13
2019-04-29T10:29:20.175Z,15.08
2019-04-29T10:33:28.058Z,15.25
2019-04-29T10:37:36.367Z,15.16
2019-04-29T10:41:44.285Z,15.48
2019-04-29T10:46:15.776Z,15.47
2019-04-29T10:50:30.521Z,15.66
2019-04-29T10:54:37.764Z,15.61
2019-04-29T10:58:44.548Z,15.36
2019-04-29T11:02:51.600Z,15.64
2019-04-29T11:07:13.410Z,15.54
2019-04-29T11:11:22.116Z,15.52
2019-04-29T11:15:21.798Z,15.45
2019-04-29T11:19:28.744Z,15.65
2019-04-29T11:23:41.707Z,15.80
2019-04-29T11:27:51.995Z,16.26
2019-04-29T11:32:00.371Z,16.80
2019-04-29T11:36:11.825Z,17.39
2019-04-29T11:40:26.104Z,17.21
2019-04-29T11:44:31.987Z,17.58
2019-04-29T11:48:38.953Z,17.49
2019-04-29T11:52:48.161Z,18.84
2019-04-29T11:56:55.225Z,18.90
2019-04-29T12:01:37.336Z,19.23
2019-04-29T12:05:40.127Z,18.67
2019-04-29T12:09:50.020Z,18.21
2019-04-29T12:14:14.053Z,17.77
2019-04-29T12:18:24.448Z,17.72
2019-04-29T12:22:31.337Z,17.15
2019-04-29T12:26:42.997Z,17.15
2019-04-29T12:30:48.279Z,17.64
2019-04-29T12:35:21.717Z,17.11
2019-04-29T12:39:59.720Z,16.68
2019-04-29T12:44:09.855Z,16.84
2019-04-29T12:48:25.100Z,16.61
2019-04-29T12:52:27.343Z,16.40
2019-04-29T12:56:36.627Z,16.59
2019-04-29T13:00:48.053Z,16.42
2019-04-29T13:05:14.222Z,16.45
2019-04-29T13:09:28.099Z,16.55
2019-04-29T13:13:34.998Z,16.57
2019-04-29T13:18:03.127Z,16.40
2019-04-29T13:22:01.973Z,16.37
2019-04-29T13:26:08.956Z,16.24
2019-04-29T13:30:16.503Z,15.79
2019-04-29T13:34:33.474Z,15.63
2019-04-29T13:38:40.062Z,15.49
2019-04-29T13:42:49.224Z,15.34
2019-04-29T13:47:07.454Z,15.22
2019-04-29T13:51:34.726Z,15.20
2019-04-29T13:55:47.036Z,15.23
2019-04-29T13:59:47.570Z,15.11
2019-04-29T14:03:55.421Z,14.95
2019-04-29T14:08:03.970Z,14.86
2019-04-29T14:12:46.588Z,14.81
2019-04-29T14:16:47.505Z,14.82
2019-04-29T14:20:53.444Z,14.67
2019-04-29T14:25:02.755Z,14.75
2019-04-29T14:29:11.620Z,14.68
2019-04-29T14:33:26.184Z,14.67
2019-04-29T14:37:33.739Z,14.63
2019-04-29T14:41:51.035Z,14.60
2019-04-29T14:46:19.199Z,14.44
2019-04-29T14:50:28.896Z,14.48
2019-04-29T14:54:50.787Z,14.52
2019-04-29T14:59:06.725Z,14.55
2019-04-29T15:03:10.691Z,14.53
2019-04-29T15:07:20.977Z,14.47
2019-04-29T15:11:35.624Z,14.58
2019-04-29T15:16:05.314Z,14.61
2019-04-29T15:20:40.890Z,14.61
2019-04-29T15:24:48.555Z,14.57
2019-04-29T15:28:56.043Z,14.56
2019-04-29T15:33:07.192Z,14.49
2019-04-29T15:37:16.981Z,14.36
2019-04-29T15:41:33.182Z,14.39
2019-04-29T15:45:41.073Z,14.03
2019-04-29T15:49:55.508Z,14.03
2019-04-29T15:54:09.149Z,13.63
2019-04-29T15:58:15.389Z,13.42
2019-04-29T16:03:42.819Z,13.28
2019-04-29T16:14:54.248Z,13.05
2019-04-29T16:19:31.640Z,12.73
2019-04-29T16:23:44.480Z,12.71
2019-04-29T16:28:07.068Z,12.65
2019-04-29T16:32:21.586Z,12.63
2019-04-29T16:36:35.125Z,12.54
2019-04-29T16:40:57.210Z,12.50
2019-04-29T16:45:12.112Z,12.44
2019-04-29T16:49:16.329Z,12.35
2019-04-29T16:53:23.222Z,12.26
2019-04-29T16:57:29.937Z,12.24
2019-04-29T17:01:36.721Z,12.17
2019-04-29T17:05:43.800Z,12.13
2019-04-29T17:10:03.321Z,12.05
2019-04-29T17:14:12.735Z,11.99
2019-04-29T17:18:19.238Z,11.95
2019-04-29T17:22:27.698Z,11.90
2019-04-29T17:26:44.108Z,11.94
2019-04-29T17:31:22.904Z,12.01
2019-04-29T17:35:32.410Z,12.01
2019-04-29T17:39:40.238Z,11.85
2019-04-29T17:44:09.496Z,11.94
2019-04-29T17:48:35.642Z,11.89
2019-04-29T17:52:46.457Z,11.88
2019-04-29T17:57:25.643Z,11.82
2019-04-29T18:01:56.136Z,11.83
2019-04-29T18:06:49.002Z,11.73
2019-04-29T18:11:06.604Z,11.65
2019-04-29T18:15:17.676Z,11.43
2019-04-29T18:19:30.872Z,11.59
2019-04-29T18:23:56.793Z,11.44
2019-04-29T18:28:05.201Z,11.46
2019-04-29T18:32:12.190Z,11.42
2019-04-29T18:36:24.040Z,11.33
2019-04-29T18:40:30.149Z,11.32
2019-04-29T18:44:54.275Z,11.17
2019-04-29T18:48:50.087Z,11.26
2019-04-29T18:52:57.514Z,11.19
2019-04-29T18:57:05.861Z,11.20
2019-04-29T19:01:14.032Z,11.21
2019-04-29T19:05:32.367Z,11.23
2019-04-29T19:09:49.614Z,11.21
2019-04-29T19:13:56.658Z,11.25
2019-04-29T19:18:07.633Z,11.21
2019-04-29T19:22:16.506Z,11.22
2019-04-29T19:26:25.845Z,11.24
2019-04-29T19:30:32.311Z,11.21
2019-04-29T19:34:43.088Z,11.02
2019-04-29T19:38:48.351Z,11.09
2019-04-29T19:42:55.936Z,11.08
2019-04-29T19:47:03.328Z,11.13
2019-04-29T19:51:16.021Z,11.07
2019-04-29T19:55:18.854Z,11.02
2019-04-29T19:59:26.807Z,11.02
2019-04-29T20:03:41.551Z,10.96
2019-04-29T20:07:50.305Z,11.03
2019-04-29T20:12:13.274Z,11.15
2019-04-29T20:16:43.077Z,11.28
2019-04-29T20:20:42.843Z,11.24
2019-04-29T20:24:51.706Z,11.22
2019-04-29T20:28:59.418Z,11.05
2019-04-29T20:33:11.100Z,11.12
2019-04-29T20:37:18.142Z,11.10
2019-04-29T20:41:38.106Z,11.05
2019-04-29T20:45:32.119Z,10.92
2019-04-29T20:49:39.842Z,11.02
2019-04-29T20:53:56.092Z,10.92
2019-04-29T20:58:06.393Z,10.93
2019-04-29T21:02:13.244Z,10.90
2019-04-29T21:06:21.593Z,10.97
2019-04-29T21:10:30.526Z,10.93
2019-04-29T21:14:46.340Z,10.95
2019-04-29T21:18:56.690Z,10.92
2019-04-29T21:23:03.081Z,10.96
2019-04-29T21:27:10.075Z,10.87
2019-04-29T21:31:20.017Z,10.90
2019-04-29T21:35:36.113Z,10.79
2019-04-29T21:39:56.353Z,10.85
2019-04-29T21:44:05.187Z,10.72
2019-04-29T21:48:12.028Z,10.71
2019-04-29T21:52:19.580Z,10.73
2019-04-29T21:56:27.673Z,10.63
2019-04-29T22:00:35.233Z,10.66
2019-04-29T22:04:45.003Z,10.66
2019-04-29T22:08:54.280Z,10.63
2019-04-29T22:13:02.372Z,10.62
2019-04-29T22:17:09.354Z,10.59
2019-04-29T22:21:22.036Z,10.61
2019-04-29T22:25:25.840Z,10.57
2019-04-29T22:29:37.310Z,10.66
2019-04-29T22:33:41.468Z,10.66
2019-04-29T22:37:48.622Z,10.65
2019-04-29T22:42:29.328Z,10.73
2019-04-29T22:46:40.192Z,10.69
2019-04-29T22:50:47.399Z,10.70
2019-04-29T22:55:01.619Z,10.73
2019-04-29T22:59:07.608Z,10.71
2019-04-29T23:03:14.395Z,10.71
2019-04-29T23:07:22.186Z,10.73
2019-04-29T23:11:34.687Z,10.73
2019-04-29T23:15:39.211Z,10.71
2019-04-29T23:19:50.606Z,10.80
2019-04-29T23:24:13.267Z,10.73
2019-04-29T23:28:16.513Z,10.69
2019-04-29T23:32:25.235Z,10.66
2019-04-29T23:36:32.769Z,10.61
2019-04-29T23:40:39.616Z,10.70
2019-04-29T23:44:46.741Z,10.73
2019-04-29T23:48:56.540Z,10.71
2019-04-29T23:53:02.656Z,10.67
2019-04-29T23:57:35.867Z,10.69
